sensor_id;sensor_type;location;lat;lon;timestamp;temperature;humidity
58519;DHT22;44310;48.106;12.008;2022-12-07T00:01:25;15.10;81.40
58519;DHT22;44310;48.106;12.008;2022-12-07T00:03:54;15.10;81.40
58519;DHT22;44310;48.106;12.008;2022-12-07T00:06:24;15.10;81.60
58519;DHT22;44310;48.106;12.008;2022-12-07T00:08:51;15.10;81.70
58519;DHT22;44310;48.106;12.008;2022-12-07T00:11:20;15.10;81.60
58519;DHT22;44310;48.106;12.008;2022-12-07T00:13:55;15.10;81.60
58519;DHT22;44310;48.106;12.008;2022-12-07T00:16:24;15.10;81.60
58519;DHT22;44310;48.106;12.008;2022-12-07T00:18:51;15.10;81.60
58519;DHT22;44310;48.106;12.008;2022-12-07T00:21:21;15.10;81.60
58519;DHT22;44310;48.106;12.008;2022-12-07T00:23:50;15.10;81.50
58519;DHT22;44310;48.106;12.008;2022-12-07T00:26:28;15.00;81.40
58519;DHT22;44310;48.106;12.008;2022-12-07T00:28:58;15.00;81.30
58519;DHT22;44310;48.106;12.008;2022-12-07T00:31:27;15.00;81.20
58519;DHT22;44310;48.106;12.008;2022-12-07T00:33:55;15.00;81.20
58519;DHT22;44310;48.106;12.008;2022-12-07T00:36:23;15.00;81.00
58519;DHT22;44310;48.106;12.008;2022-12-07T00:38:54;15.00;80.90
58519;DHT22;44310;48.106;12.008;2022-12-07T00:41:25;15.00;80.90
58519;DHT22;44310;48.106;12.008;2022-12-07T00:43:53;15.10;80.90
58519;DHT22;44310;48.106;12.008;2022-12-07T00:46:20;15.00;80.90
58519;DHT22;44310;48.106;12.008;2022-12-07T00:48:49;15.00;80.80
58519;DHT22;44310;48.106;12.008;2022-12-07T00:51:18;15.10;81.00
58519;DHT22;44310;48.106;12.008;2022-12-07T00:53:46;15.00;80.90
58519;DHT22;44310;48.106;12.008;2022-12-07T00:56:19;15.00;80.90
58519;DHT22;44310;48.106;12.008;2022-12-07T00:59:00;15.10;81.00
58519;DHT22;44310;48.106;12.008;2022-12-07T01:01:33;15.10;81.00
58519;DHT22;44310;48.106;12.008;2022-12-07T01:04:01;15.00;80.90
58519;DHT22;44310;48.106;12.008;2022-12-07T01:06:29;15.10;81.00
58519;DHT22;44310;48.106;12.008;2022-12-07T01:08:57;15.10;81.10
58519;DHT22;44310;48.106;12.008;2022-12-07T01:11:26;15.10;81.10
58519;DHT22;44310;48.106;12.008;2022-12-07T01:13:56;15.10;81.10
58519;DHT22;44310;48.106;12.008;2022-12-07T01:16:25;15.10;81.20
58519;DHT22;44310;48.106;12.008;2022-12-07T01:18:56;15.10;81.60
58519;DHT22;44310;48.106;12.008;2022-12-07T01:21:27;15.10;81.30
58519;DHT22;44310;48.106;12.008;2022-12-07T01:23:56;15.10;81.40
58519;DHT22;44310;48.106;12.008;2022-12-07T01:26:24;15.10;81.90
58519;DHT22;44310;48.106;12.008;2022-12-07T01:28:52;15.10;82.10
58519;DHT22;44310;48.106;12.008;2022-12-07T01:31:23;15.10;82.30
58519;DHT22;44310;48.106;12.008;2022-12-07T01:33:54;15.10;82.50
58519;DHT22;44310;48.106;12.008;2022-12-07T01:36:27;15.20;82.40
58519;DHT22;44310;48.106;12.008;2022-12-07T01:38:57;15.20;82.20
58519;DHT22;44310;48.106;12.008;2022-12-07T01:41:26;15.10;82.00
58519;DHT22;44310;48.106;12.008;2022-12-07T01:44:19;15.10;81.90
58519;DHT22;44310;48.106;12.008;2022-12-07T01:46:54;15.00;81.70
58519;DHT22;44310;48.106;12.008;2022-12-07T01:49:42;15.00;81.40
58519;DHT22;44310;48.106;12.008;2022-12-07T01:52:28;15.00;81.30
58519;DHT22;44310;48.106;12.008;2022-12-07T01:55:00;15.00;81.10
58519;DHT22;44310;48.106;12.008;2022-12-07T01:57:30;15.00;80.90
58519;DHT22;44310;48.106;12.008;2022-12-07T01:59:57;15.00;80.80
58519;DHT22;44310;48.106;12.008;2022-12-07T02:02:33;15.00;80.70
58519;DHT22;44310;48.106;12.008;2022-12-07T02:05:03;15.00;81.10
58519;DHT22;44310;48.106;12.008;2022-12-07T02:07:31;15.00;81.30
58519;DHT22;44310;48.106;12.008;2022-12-07T02:10:16;15.00;81.20
58519;DHT22;44310;48.106;12.008;2022-12-07T02:12:48;15.00;80.90
58519;DHT22;44310;48.106;12.008;2022-12-07T02:15:18;15.00;80.90
58519;DHT22;44310;48.106;12.008;2022-12-07T02:17:53;15.00;80.70
58519;DHT22;44310;48.106;12.008;2022-12-07T02:21:03;15.00;81.20
58519;DHT22;44310;48.106;12.008;2022-12-07T02:23:38;15.10;82.00
58519;DHT22;44310;48.106;12.008;2022-12-07T02:26:45;15.10;81.90
58519;DHT22;44310;48.106;12.008;2022-12-07T02:29:22;15.10;82.00
58519;DHT22;44310;48.106;12.008;2022-12-07T02:32:03;15.10;82.20
58519;DHT22;44310;48.106;12.008;2022-12-07T02:34:58;15.20;82.60
58519;DHT22;44310;48.106;12.008;2022-12-07T02:37:50;15.20;83.20
58519;DHT22;44310;48.106;12.008;2022-12-07T02:43:02;15.20;83.80
58519;DHT22;44310;48.106;12.008;2022-12-07T02:45:31;15.20;84.10
58519;DHT22;44310;48.106;12.008;2022-12-07T02:48:00;15.20;83.90
58519;DHT22;44310;48.106;12.008;2022-12-07T02:50:27;15.20;83.90
58519;DHT22;44310;48.106;12.008;2022-12-07T02:52:55;15.20;84.00
58519;DHT22;44310;48.106;12.008;2022-12-07T02:55:27;15.20;84.10
58519;DHT22;44310;48.106;12.008;2022-12-07T02:58:05;15.20;84.40
58519;DHT22;44310;48.106;12.008;2022-12-07T03:01:15;15.20;84.50
58519;DHT22;44310;48.106;12.008;2022-12-07T03:03:33;15.20;84.20
58519;DHT22;44310;48.106;12.008;2022-12-07T03:06:12;15.10;84.20
58519;DHT22;44310;48.106;12.008;2022-12-07T03:08:58;15.20;83.90
58519;DHT22;44310;48.106;12.008;2022-12-07T03:16:57;15.20;84.60
58519;DHT22;44310;48.106;12.008;2022-12-07T03:19:26;15.20;84.50
58519;DHT22;44310;48.106;12.008;2022-12-07T03:21:58;15.20;84.40
58519;DHT22;44310;48.106;12.008;2022-12-07T03:24:36;15.20;84.40
58519;DHT22;44310;48.106;12.008;2022-12-07T03:27:09;15.20;84.50
58519;DHT22;44310;48.106;12.008;2022-12-07T03:29:56;15.20;84.30
58519;DHT22;44310;48.106;12.008;2022-12-07T03:32:31;15.10;84.20
58519;DHT22;44310;48.106;12.008;2022-12-07T03:35:27;15.10;84.10
58519;DHT22;44310;48.106;12.008;2022-12-07T03:37:59;15.10;83.50
58519;DHT22;44310;48.106;12.008;2022-12-07T03:40:52;15.00;83.00
58519;DHT22;44310;48.106;12.008;2022-12-07T03:43:21;15.00;82.80
58519;DHT22;44310;48.106;12.008;2022-12-07T03:48:55;15.00;82.70
58519;DHT22;44310;48.106;12.008;2022-12-07T03:54:13;15.00;82.40
58519;DHT22;44310;48.106;12.008;2022-12-07T03:56:43;15.00;82.30
58519;DHT22;44310;48.106;12.008;2022-12-07T03:59:12;15.00;82.10
58519;DHT22;44310;48.106;12.008;2022-12-07T04:01:42;15.00;82.00
58519;DHT22;44310;48.106;12.008;2022-12-07T04:04:10;15.00;82.10
58519;DHT22;44310;48.106;12.008;2022-12-07T04:06:37;15.00;83.20
58519;DHT22;44310;48.106;12.008;2022-12-07T04:09:04;15.10;83.00
58519;DHT22;44310;48.106;12.008;2022-12-07T04:11:31;15.10;82.70
58519;DHT22;44310;48.106;12.008;2022-12-07T04:13:58;15.10;82.50
58519;DHT22;44310;48.106;12.008;2022-12-07T04:16:46;15.10;82.40
58519;DHT22;44310;48.106;12.008;2022-12-07T04:19:14;15.10;82.00
58519;DHT22;44310;48.106;12.008;2022-12-07T04:21:43;15.10;81.90
58519;DHT22;44310;48.106;12.008;2022-12-07T04:24:12;15.10;81.60
58519;DHT22;44310;48.106;12.008;2022-12-07T04:26:39;15.10;81.40
58519;DHT22;44310;48.106;12.008;2022-12-07T04:29:07;15.10;81.30
58519;DHT22;44310;48.106;12.008;2022-12-07T04:31:35;15.10;81.20
58519;DHT22;44310;48.106;12.008;2022-12-07T04:34:03;15.10;81.10
58519;DHT22;44310;48.106;12.008;2022-12-07T04:36:31;15.10;81.00
58519;DHT22;44310;48.106;12.008;2022-12-07T04:38:59;15.10;80.90
58519;DHT22;44310;48.106;12.008;2022-12-07T04:41:26;15.10;80.80
58519;DHT22;44310;48.106;12.008;2022-12-07T04:43:58;15.10;80.80
58519;DHT22;44310;48.106;12.008;2022-12-07T04:46:26;15.00;81.00
58519;DHT22;44310;48.106;12.008;2022-12-07T04:48:54;15.00;80.90
58519;DHT22;44310;48.106;12.008;2022-12-07T04:51:24;15.10;80.80
58519;DHT22;44310;48.106;12.008;2022-12-07T04:53:52;15.10;81.10
58519;DHT22;44310;48.106;12.008;2022-12-07T04:56:19;15.10;81.40
58519;DHT22;44310;48.106;12.008;2022-12-07T04:58:47;15.10;81.70
58519;DHT22;44310;48.106;12.008;2022-12-07T05:01:16;15.10;82.00
58519;DHT22;44310;48.106;12.008;2022-12-07T05:03:43;15.10;81.90
58519;DHT22;44310;48.106;12.008;2022-12-07T05:06:11;15.10;82.00
58519;DHT22;44310;48.106;12.008;2022-12-07T05:08:40;15.10;82.00
58519;DHT22;44310;48.106;12.008;2022-12-07T05:11:08;15.10;82.00
58519;DHT22;44310;48.106;12.008;2022-12-07T05:13:36;15.10;82.40
58519;DHT22;44310;48.106;12.008;2022-12-07T05:16:03;15.20;82.00
58519;DHT22;44310;48.106;12.008;2022-12-07T05:18:30;15.20;82.00
58519;DHT22;44310;48.106;12.008;2022-12-07T05:20:57;15.20;82.30
58519;DHT22;44310;48.106;12.008;2022-12-07T05:23:24;15.20;82.10
58519;DHT22;44310;48.106;12.008;2022-12-07T05:25:51;15.10;81.50
58519;DHT22;44310;48.106;12.008;2022-12-07T05:28:18;15.10;81.20
58519;DHT22;44310;48.106;12.008;2022-12-07T05:30:46;15.00;81.10
58519;DHT22;44310;48.106;12.008;2022-12-07T05:33:13;15.00;80.80
58519;DHT22;44310;48.106;12.008;2022-12-07T05:35:40;15.00;80.60
58519;DHT22;44310;48.106;12.008;2022-12-07T05:38:07;14.90;80.50
58519;DHT22;44310;48.106;12.008;2022-12-07T05:40:34;14.90;80.50
58519;DHT22;44310;48.106;12.008;2022-12-07T05:43:01;15.00;80.80
58519;DHT22;44310;48.106;12.008;2022-12-07T05:45:31;15.00;81.30
58519;DHT22;44310;48.106;12.008;2022-12-07T05:47:58;15.00;81.30
58519;DHT22;44310;48.106;12.008;2022-12-07T05:50:25;15.10;81.60
58519;DHT22;44310;48.106;12.008;2022-12-07T05:52:52;15.10;81.60
58519;DHT22;44310;48.106;12.008;2022-12-07T05:55:19;15.10;81.70
58519;DHT22;44310;48.106;12.008;2022-12-07T05:57:47;15.10;81.90
58519;DHT22;44310;48.106;12.008;2022-12-07T06:00:32;15.10;81.80
58519;DHT22;44310;48.106;12.008;2022-12-07T06:02:59;15.10;81.80
58519;DHT22;44310;48.106;12.008;2022-12-07T06:05:27;15.10;82.00
58519;DHT22;44310;48.106;12.008;2022-12-07T06:07:54;15.10;81.90
58519;DHT22;44310;48.106;12.008;2022-12-07T06:10:21;15.10;81.70
58519;DHT22;44310;48.106;12.008;2022-12-07T06:12:48;15.00;81.60
58519;DHT22;44310;48.106;12.008;2022-12-07T06:15:15;15.00;81.40
58519;DHT22;44310;48.106;12.008;2022-12-07T06:17:42;15.00;81.50
58519;DHT22;44310;48.106;12.008;2022-12-07T06:20:09;15.00;81.40
58519;DHT22;44310;48.106;12.008;2022-12-07T06:22:37;15.00;81.40
58519;DHT22;44310;48.106;12.008;2022-12-07T06:25:04;15.10;81.30
58519;DHT22;44310;48.106;12.008;2022-12-07T06:27:35;15.00;81.20
58519;DHT22;44310;48.106;12.008;2022-12-07T06:30:03;15.10;81.30
58519;DHT22;44310;48.106;12.008;2022-12-07T06:32:33;15.10;81.60
58519;DHT22;44310;48.106;12.008;2022-12-07T06:35:00;15.10;81.90
58519;DHT22;44310;48.106;12.008;2022-12-07T06:37:28;15.10;81.90
58519;DHT22;44310;48.106;12.008;2022-12-07T06:39:55;15.10;81.80
58519;DHT22;44310;48.106;12.008;2022-12-07T06:42:22;15.10;81.80
58519;DHT22;44310;48.106;12.008;2022-12-07T06:44:50;15.10;81.60
58519;DHT22;44310;48.106;12.008;2022-12-07T06:47:17;15.10;81.50
58519;DHT22;44310;48.106;12.008;2022-12-07T06:50:04;15.10;81.30
58519;DHT22;44310;48.106;12.008;2022-12-07T06:52:33;15.10;81.10
58519;DHT22;44310;48.106;12.008;2022-12-07T06:55:00;15.10;80.90
58519;DHT22;44310;48.106;12.008;2022-12-07T06:57:27;15.10;80.80
58519;DHT22;44310;48.106;12.008;2022-12-07T06:59:54;15.10;80.60
58519;DHT22;44310;48.106;12.008;2022-12-07T07:02:21;15.10;80.60
58519;DHT22;44310;48.106;12.008;2022-12-07T07:04:48;15.10;80.40
58519;DHT22;44310;48.106;12.008;2022-12-07T07:07:15;15.10;80.20
58519;DHT22;44310;48.106;12.008;2022-12-07T07:09:42;15.10;80.00
58519;DHT22;44310;48.106;12.008;2022-12-07T07:12:09;15.10;79.90
58519;DHT22;44310;48.106;12.008;2022-12-07T07:14:36;15.10;79.90
58519;DHT22;44310;48.106;12.008;2022-12-07T07:17:03;15.10;79.90
58519;DHT22;44310;48.106;12.008;2022-12-07T07:19:31;15.10;79.70
58519;DHT22;44310;48.106;12.008;2022-12-07T07:21:58;15.10;79.10
58519;DHT22;44310;48.106;12.008;2022-12-07T07:24:25;15.00;78.60
58519;DHT22;44310;48.106;12.008;2022-12-07T07:26:52;15.00;78.60
58519;DHT22;44310;48.106;12.008;2022-12-07T07:29:19;15.00;78.60
58519;DHT22;44310;48.106;12.008;2022-12-07T07:31:46;15.00;78.70
58519;DHT22;44310;48.106;12.008;2022-12-07T07:34:13;15.00;78.90
58519;DHT22;44310;48.106;12.008;2022-12-07T07:36:40;15.00;79.00
58519;DHT22;44310;48.106;12.008;2022-12-07T07:39:07;15.10;79.30
58519;DHT22;44310;48.106;12.008;2022-12-07T07:41:34;15.10;79.40
58519;DHT22;44310;48.106;12.008;2022-12-07T07:44:01;15.10;79.40
58519;DHT22;44310;48.106;12.008;2022-12-07T07:46:28;15.10;79.60
58519;DHT22;44310;48.106;12.008;2022-12-07T07:48:55;15.10;79.60
58519;DHT22;44310;48.106;12.008;2022-12-07T07:51:23;15.20;79.80
58519;DHT22;44310;48.106;12.008;2022-12-07T07:53:50;15.10;80.60
58519;DHT22;44310;48.106;12.008;2022-12-07T07:56:17;15.10;80.00
58519;DHT22;44310;48.106;12.008;2022-12-07T07:58:44;15.10;80.30
58519;DHT22;44310;48.106;12.008;2022-12-07T08:01:11;15.20;80.30
58519;DHT22;44310;48.106;12.008;2022-12-07T08:03:40;15.10;80.40
58519;DHT22;44310;48.106;12.008;2022-12-07T08:06:07;15.20;80.40
58519;DHT22;44310;48.106;12.008;2022-12-07T08:08:34;15.20;80.40
58519;DHT22;44310;48.106;12.008;2022-12-07T08:11:05;15.20;80.30
58519;DHT22;44310;48.106;12.008;2022-12-07T08:13:32;15.20;80.20
58519;DHT22;44310;48.106;12.008;2022-12-07T08:16:04;15.20;80.00
58519;DHT22;44310;48.106;12.008;2022-12-07T08:18:35;15.20;79.90
58519;DHT22;44310;48.106;12.008;2022-12-07T08:21:04;15.20;79.70
58519;DHT22;44310;48.106;12.008;2022-12-07T08:23:31;15.20;79.70
58519;DHT22;44310;48.106;12.008;2022-12-07T08:26:11;15.20;80.20
58519;DHT22;44310;48.106;12.008;2022-12-07T08:28:39;15.10;79.90
58519;DHT22;44310;48.106;12.008;2022-12-07T08:31:09;15.20;80.00
58519;DHT22;44310;48.106;12.008;2022-12-07T08:33:37;15.20;79.90
58519;DHT22;44310;48.106;12.008;2022-12-07T08:36:09;15.20;79.70
58519;DHT22;44310;48.106;12.008;2022-12-07T08:38:38;15.20;79.90
58519;DHT22;44310;48.106;12.008;2022-12-07T08:41:07;15.10;79.80
58519;DHT22;44310;48.106;12.008;2022-12-07T08:43:35;15.10;80.10
58519;DHT22;44310;48.106;12.008;2022-12-07T08:46:21;15.10;79.70
58519;DHT22;44310;48.106;12.008;2022-12-07T08:49:01;15.10;79.70
58519;DHT22;44310;48.106;12.008;2022-12-07T08:51:29;15.10;79.70
58519;DHT22;44310;48.106;12.008;2022-12-07T08:53:58;15.10;79.60
58519;DHT22;44310;48.106;12.008;2022-12-07T08:56:27;15.10;79.50
58519;DHT22;44310;48.106;12.008;2022-12-07T08:58:55;15.10;79.30
58519;DHT22;44310;48.106;12.008;2022-12-07T09:01:22;15.10;79.30
58519;DHT22;44310;48.106;12.008;2022-12-07T09:03:49;15.10;79.20
58519;DHT22;44310;48.106;12.008;2022-12-07T09:06:16;15.10;79.00
58519;DHT22;44310;48.106;12.008;2022-12-07T09:08:47;15.10;78.80
58519;DHT22;44310;48.106;12.008;2022-12-07T09:11:16;15.10;78.80
58519;DHT22;44310;48.106;12.008;2022-12-07T09:13:43;15.10;78.70
58519;DHT22;44310;48.106;12.008;2022-12-07T09:16:10;15.10;78.80
58519;DHT22;44310;48.106;12.008;2022-12-07T09:18:37;15.10;78.70
58519;DHT22;44310;48.106;12.008;2022-12-07T09:21:05;15.10;78.60
58519;DHT22;44310;48.106;12.008;2022-12-07T09:23:32;15.10;78.50
58519;DHT22;44310;48.106;12.008;2022-12-07T09:26:00;15.10;78.40
58519;DHT22;44310;48.106;12.008;2022-12-07T09:28:33;15.10;78.70
58519;DHT22;44310;48.106;12.008;2022-12-07T09:31:02;15.10;79.00
58519;DHT22;44310;48.106;12.008;2022-12-07T09:33:57;15.10;79.10
58519;DHT22;44310;48.106;12.008;2022-12-07T09:36:25;15.10;79.00
58519;DHT22;44310;48.106;12.008;2022-12-07T09:38:53;15.10;79.00
58519;DHT22;44310;48.106;12.008;2022-12-07T09:41:21;15.10;79.90
58519;DHT22;44310;48.106;12.008;2022-12-07T09:43:49;15.10;79.40
58519;DHT22;44310;48.106;12.008;2022-12-07T09:46:18;15.10;79.70
58519;DHT22;44310;48.106;12.008;2022-12-07T09:48:48;15.10;79.80
58519;DHT22;44310;48.106;12.008;2022-12-07T09:51:17;15.10;79.00
58519;DHT22;44310;48.106;12.008;2022-12-07T09:53:51;15.00;79.30
58519;DHT22;44310;48.106;12.008;2022-12-07T09:56:20;15.00;79.40
58519;DHT22;44310;48.106;12.008;2022-12-07T09:58:48;15.00;79.40
58519;DHT22;44310;48.106;12.008;2022-12-07T10:01:18;15.00;79.20
58519;DHT22;44310;48.106;12.008;2022-12-07T10:03:55;15.10;79.30
58519;DHT22;44310;48.106;12.008;2022-12-07T10:06:25;15.10;79.30
58519;DHT22;44310;48.106;12.008;2022-12-07T10:08:52;15.10;79.40
58519;DHT22;44310;48.106;12.008;2022-12-07T10:11:19;15.10;79.30
58519;DHT22;44310;48.106;12.008;2022-12-07T10:13:52;15.10;79.30
58519;DHT22;44310;48.106;12.008;2022-12-07T10:18:51;15.10;78.80
58519;DHT22;44310;48.106;12.008;2022-12-07T10:21:23;15.00;78.30
58519;DHT22;44310;48.106;12.008;2022-12-07T10:26:47;15.00;77.40
58519;DHT22;44310;48.106;12.008;2022-12-07T10:31:58;15.00;77.00
58519;DHT22;44310;48.106;12.008;2022-12-07T10:34:28;15.00;76.50
58519;DHT22;44310;48.106;12.008;2022-12-07T10:37:17;15.00;75.80
58519;DHT22;44310;48.106;12.008;2022-12-07T10:39:53;15.00;75.70
58519;DHT22;44310;48.106;12.008;2022-12-07T10:45:14;15.00;75.20
58519;DHT22;44310;48.106;12.008;2022-12-07T11:02:40;15.00;74.60
58519;DHT22;44310;48.106;12.008;2022-12-07T11:13:48;15.00;74.10
58519;DHT22;44310;48.106;12.008;2022-12-07T11:17:01;15.00;73.90
58519;DHT22;44310;48.106;12.008;2022-12-07T11:22:26;15.00;73.50
58519;DHT22;44310;48.106;12.008;2022-12-07T11:25:03;15.00;73.30
58519;DHT22;44310;48.106;12.008;2022-12-07T11:28:03;14.90;72.70
58519;DHT22;44310;48.106;12.008;2022-12-07T11:30:47;14.90;72.70
58519;DHT22;44310;48.106;12.008;2022-12-07T11:33:28;14.90;73.60
58519;DHT22;44310;48.106;12.008;2022-12-07T11:36:07;14.90;73.80
58519;DHT22;44310;48.106;12.008;2022-12-07T11:38:44;14.80;72.40
58519;DHT22;44310;48.106;12.008;2022-12-07T11:41:13;14.70;71.30
58519;DHT22;44310;48.106;12.008;2022-12-07T11:46:19;14.60;72.10
58519;DHT22;44310;48.106;12.008;2022-12-07T11:49:02;14.70;72.40
58519;DHT22;44310;48.106;12.008;2022-12-07T11:51:33;14.80;73.00
58519;DHT22;44310;48.106;12.008;2022-12-07T11:54:10;14.90;73.10
58519;DHT22;44310;48.106;12.008;2022-12-07T11:56:38;14.90;72.90
58519;DHT22;44310;48.106;12.008;2022-12-07T11:59:28;15.00;74.00
58519;DHT22;44310;48.106;12.008;2022-12-07T12:02:11;15.00;74.20
58519;DHT22;44310;48.106;12.008;2022-12-07T12:05:02;15.00;74.30
58519;DHT22;44310;48.106;12.008;2022-12-07T12:07:31;15.00;74.40
58519;DHT22;44310;48.106;12.008;2022-12-07T12:10:37;15.00;72.90
58519;DHT22;44310;48.106;12.008;2022-12-07T12:16:37;14.70;73.00
58519;DHT22;44310;48.106;12.008;2022-12-07T12:19:23;14.60;72.60
58519;DHT22;44310;48.106;12.008;2022-12-07T12:22:09;14.60;73.60
58519;DHT22;44310;48.106;12.008;2022-12-07T12:24:40;14.60;72.90
58519;DHT22;44310;48.106;12.008;2022-12-07T12:29:56;14.40;70.50
58519;DHT22;44310;48.106;12.008;2022-12-07T12:32:40;14.30;70.90
58519;DHT22;44310;48.106;12.008;2022-12-07T12:37:55;14.40;73.90
58519;DHT22;44310;48.106;12.008;2022-12-07T12:42:57;14.40;74.20
58519;DHT22;44310;48.106;12.008;2022-12-07T12:45:29;14.40;74.10
58519;DHT22;44310;48.106;12.008;2022-12-07T12:48:26;14.40;74.10
58519;DHT22;44310;48.106;12.008;2022-12-07T12:51:35;14.40;74.00
58519;DHT22;44310;48.106;12.008;2022-12-07T12:59:28;14.40;74.60
58519;DHT22;44310;48.106;12.008;2022-12-07T13:02:23;14.40;74.70
58519;DHT22;44310;48.106;12.008;2022-12-07T13:18:02;14.40;74.80
58519;DHT22;44310;48.106;12.008;2022-12-07T13:23:29;14.40;74.90
58519;DHT22;44310;48.106;12.008;2022-12-07T13:28:51;14.40;74.80
58519;DHT22;44310;48.106;12.008;2022-12-07T13:33:49;14.30;74.80
58519;DHT22;44310;48.106;12.008;2022-12-07T13:36:27;14.40;74.70
58519;DHT22;44310;48.106;12.008;2022-12-07T13:39:00;14.40;74.80
58519;DHT22;44310;48.106;12.008;2022-12-07T13:41:36;14.40;74.80
58519;DHT22;44310;48.106;12.008;2022-12-07T13:44:13;14.40;74.80
58519;DHT22;44310;48.106;12.008;2022-12-07T13:49:48;14.40;74.80
58519;DHT22;44310;48.106;12.008;2022-12-07T13:52:25;14.40;74.80
58519;DHT22;44310;48.106;12.008;2022-12-07T13:54:59;14.30;74.70
58519;DHT22;44310;48.106;12.008;2022-12-07T13:57:30;14.30;74.90
58519;DHT22;44310;48.106;12.008;2022-12-07T13:59:58;14.40;74.90
58519;DHT22;44310;48.106;12.008;2022-12-07T14:02:30;14.40;75.00
58519;DHT22;44310;48.106;12.008;2022-12-07T14:05:14;14.30;74.60
58519;DHT22;44310;48.106;12.008;2022-12-07T14:07:56;14.40;74.60
58519;DHT22;44310;48.106;12.008;2022-12-07T14:10:25;14.30;74.40
58519;DHT22;44310;48.106;12.008;2022-12-07T14:12:53;14.40;74.50
58519;DHT22;44310;48.106;12.008;2022-12-07T14:15:23;14.30;74.40
58519;DHT22;44310;48.106;12.008;2022-12-07T14:17:52;14.40;74.60
58519;DHT22;44310;48.106;12.008;2022-12-07T14:22:57;14.30;74.30
58519;DHT22;44310;48.106;12.008;2022-12-07T14:25:26;14.30;74.10
58519;DHT22;44310;48.106;12.008;2022-12-07T14:30:24;14.40;73.80
58519;DHT22;44310;48.106;12.008;2022-12-07T14:32:57;14.40;73.80
58519;DHT22;44310;48.106;12.008;2022-12-07T14:35:26;14.30;74.00
58519;DHT22;44310;48.106;12.008;2022-12-07T14:37:53;14.40;74.80
58519;DHT22;44310;48.106;12.008;2022-12-07T14:40:28;14.40;75.30
58519;DHT22;44310;48.106;12.008;2022-12-07T14:43:01;13.60;75.70
58519;DHT22;44310;48.106;12.008;2022-12-07T14:45:29;14.20;75.00
58519;DHT22;44310;48.106;12.008;2022-12-07T14:47:56;14.40;74.50
58519;DHT22;44310;48.106;12.008;2022-12-07T14:51:05;14.50;74.00
58519;DHT22;44310;48.106;12.008;2022-12-07T14:56:34;14.60;74.20
58519;DHT22;44310;48.106;12.008;2022-12-07T14:59:01;14.60;74.50
58519;DHT22;44310;48.106;12.008;2022-12-07T15:01:28;14.60;74.00
58519;DHT22;44310;48.106;12.008;2022-12-07T15:03:55;14.70;74.10
58519;DHT22;44310;48.106;12.008;2022-12-07T15:06:23;14.60;73.80
58519;DHT22;44310;48.106;12.008;2022-12-07T15:08:50;14.60;73.60
58519;DHT22;44310;48.106;12.008;2022-12-07T15:11:18;14.50;73.40
58519;DHT22;44310;48.106;12.008;2022-12-07T15:13:45;14.60;73.00
58519;DHT22;44310;48.106;12.008;2022-12-07T15:16:31;14.50;72.80
58519;DHT22;44310;48.106;12.008;2022-12-07T15:19:20;14.50;72.70
58519;DHT22;44310;48.106;12.008;2022-12-07T15:21:56;14.50;72.60
58519;DHT22;44310;48.106;12.008;2022-12-07T15:24:23;14.40;72.60
58519;DHT22;44310;48.106;12.008;2022-12-07T15:26:51;15.20;73.00
58519;DHT22;44310;48.106;12.008;2022-12-07T15:29:19;14.40;72.50
58519;DHT22;44310;48.106;12.008;2022-12-07T15:31:50;14.40;72.50
58519;DHT22;44310;48.106;12.008;2022-12-07T15:34:25;14.40;72.70
58519;DHT22;44310;48.106;12.008;2022-12-07T15:37:02;14.30;72.70
58519;DHT22;44310;48.106;12.008;2022-12-07T15:39:30;14.30;72.70
58519;DHT22;44310;48.106;12.008;2022-12-07T15:41:57;14.30;72.50
58519;DHT22;44310;48.106;12.008;2022-12-07T15:44:24;14.30;72.30
58519;DHT22;44310;48.106;12.008;2022-12-07T15:47:10;14.30;72.40
58519;DHT22;44310;48.106;12.008;2022-12-07T15:49:37;14.20;71.70
58519;DHT22;44310;48.106;12.008;2022-12-07T15:52:04;14.20;71.60
58519;DHT22;44310;48.106;12.008;2022-12-07T15:54:31;14.20;71.10
58519;DHT22;44310;48.106;12.008;2022-12-07T15:56:59;14.20;71.30
58519;DHT22;44310;48.106;12.008;2022-12-07T15:59:27;14.20;71.30
58519;DHT22;44310;48.106;12.008;2022-12-07T16:01:55;14.30;71.80
58519;DHT22;44310;48.106;12.008;2022-12-07T16:04:22;14.40;72.20
58519;DHT22;44310;48.106;12.008;2022-12-07T16:06:49;14.50;72.80
58519;DHT22;44310;48.106;12.008;2022-12-07T16:09:18;14.60;73.70
58519;DHT22;44310;48.106;12.008;2022-12-07T16:11:45;15.10;74.60
58519;DHT22;44310;48.106;12.008;2022-12-07T16:14:13;14.80;75.00
58519;DHT22;44310;48.106;12.008;2022-12-07T16:16:40;14.80;75.60
58519;DHT22;44310;48.106;12.008;2022-12-07T16:19:11;14.80;77.10
58519;DHT22;44310;48.106;12.008;2022-12-07T16:21:38;14.80;76.00
58519;DHT22;44310;48.106;12.008;2022-12-07T16:24:06;14.80;76.20
58519;DHT22;44310;48.106;12.008;2022-12-07T16:26:33;14.80;76.90
58519;DHT22;44310;48.106;12.008;2022-12-07T16:29:00;14.90;77.00
58519;DHT22;44310;48.106;12.008;2022-12-07T16:31:28;14.90;77.30
58519;DHT22;44310;48.106;12.008;2022-12-07T16:33:57;14.90;77.50
58519;DHT22;44310;48.106;12.008;2022-12-07T16:36:25;14.90;77.50
58519;DHT22;44310;48.106;12.008;2022-12-07T16:39:14;14.90;77.70
58519;DHT22;44310;48.106;12.008;2022-12-07T16:41:41;14.90;78.20
58519;DHT22;44310;48.106;12.008;2022-12-07T16:44:10;14.90;78.20
58519;DHT22;44310;48.106;12.008;2022-12-07T16:46:39;14.90;78.30
58519;DHT22;44310;48.106;12.008;2022-12-07T16:49:09;14.90;78.40
58519;DHT22;44310;48.106;12.008;2022-12-07T16:51:37;14.90;78.60
58519;DHT22;44310;48.106;12.008;2022-12-07T16:54:04;14.90;78.60
58519;DHT22;44310;48.106;12.008;2022-12-07T16:56:31;14.90;78.70
58519;DHT22;44310;48.106;12.008;2022-12-07T16:58:59;14.90;79.00
58519;DHT22;44310;48.106;12.008;2022-12-07T17:01:26;14.90;79.10
58519;DHT22;44310;48.106;12.008;2022-12-07T17:03:58;14.90;79.20
58519;DHT22;44310;48.106;12.008;2022-12-07T17:06:27;14.90;79.50
58519;DHT22;44310;48.106;12.008;2022-12-07T17:08:56;14.90;79.60
58519;DHT22;44310;48.106;12.008;2022-12-07T17:11:26;14.90;79.50
58519;DHT22;44310;48.106;12.008;2022-12-07T17:13:53;14.90;79.80
58519;DHT22;44310;48.106;12.008;2022-12-07T17:16:39;15.30;80.10
58519;DHT22;44310;48.106;12.008;2022-12-07T17:19:09;14.90;79.80
58519;DHT22;44310;48.106;12.008;2022-12-07T17:21:37;14.90;79.70
58519;DHT22;44310;48.106;12.008;2022-12-07T17:24:06;14.90;79.60
58519;DHT22;44310;48.106;12.008;2022-12-07T17:26:33;14.90;79.50